sensor_id;sensor_type;location;lat;lon;timestamp;temperature;humidity
55771;DHT22;41687;-33.234;-60.334;2023-03-16T00:00:19;28.30;73.00
55771;DHT22;41687;-33.234;-60.334;2023-03-16T00:02:47;28.20;73.30
55771;DHT22;41687;-33.234;-60.334;2023-03-16T00:05:15;28.20;73.60
55771;DHT22;41687;-33.234;-60.334;2023-03-16T00:07:44;28.10;73.70
55771;DHT22;41687;-33.234;-60.334;2023-03-16T00:10:13;28.10;73.90
55771;DHT22;41687;-33.234;-60.334;2023-03-16T00:12:41;28.10;74.20
55771;DHT22;41687;-33.234;-60.334;2023-03-16T00:15:13;28.10;74.10
55771;DHT22;41687;-33.234;-60.334;2023-03-16T00:17:42;28.10;74.50
55771;DHT22;41687;-33.234;-60.334;2023-03-16T00:20:15;28.00;74.20
55771;DHT22;41687;-33.234;-60.334;2023-03-16T00:22:44;28.00;74.30
55771;DHT22;41687;-33.234;-60.334;2023-03-16T00:25:13;28.00;74.60
55771;DHT22;41687;-33.234;-60.334;2023-03-16T00:27:41;28.00;74.90
55771;DHT22;41687;-33.234;-60.334;2023-03-16T00:30:09;28.00;74.60
55771;DHT22;41687;-33.234;-60.334;2023-03-16T00:32:37;27.90;74.70
55771;DHT22;41687;-33.234;-60.334;2023-03-16T00:35:06;27.90;75.00
55771;DHT22;41687;-33.234;-60.334;2023-03-16T00:37:33;27.90;75.10
55771;DHT22;41687;-33.234;-60.334;2023-03-16T00:40:03;27.80;75.40
55771;DHT22;41687;-33.234;-60.334;2023-03-16T00:42:34;27.70;75.70
55771;DHT22;41687;-33.234;-60.334;2023-03-16T00:45:05;27.70;76.00
55771;DHT22;41687;-33.234;-60.334;2023-03-16T00:47:34;27.60;76.90
55771;DHT22;41687;-33.234;-60.334;2023-03-16T00:50:02;27.60;76.40
55771;DHT22;41687;-33.234;-60.334;2023-03-16T00:52:30;27.60;76.30
55771;DHT22;41687;-33.234;-60.334;2023-03-16T00:54:58;27.60;76.70
55771;DHT22;41687;-33.234;-60.334;2023-03-16T00:57:28;27.50;77.10
55771;DHT22;41687;-33.234;-60.334;2023-03-16T00:59:57;27.50;77.10
55771;DHT22;41687;-33.234;-60.334;2023-03-16T01:02:26;27.40;78.70
55771;DHT22;41687;-33.234;-60.334;2023-03-16T01:04:54;27.40;77.80
55771;DHT22;41687;-33.234;-60.334;2023-03-16T01:07:22;27.30;78.60
55771;DHT22;41687;-33.234;-60.334;2023-03-16T01:09:51;27.30;79.90
55771;DHT22;41687;-33.234;-60.334;2023-03-16T01:12:20;27.30;79.60
55771;DHT22;41687;-33.234;-60.334;2023-03-16T01:14:48;27.20;79.80
55771;DHT22;41687;-33.234;-60.334;2023-03-16T01:17:17;27.20;79.90
55771;DHT22;41687;-33.234;-60.334;2023-03-16T01:19:45;27.10;80.50
55771;DHT22;41687;-33.234;-60.334;2023-03-16T01:22:14;27.00;80.20
55771;DHT22;41687;-33.234;-60.334;2023-03-16T01:24:43;27.00;80.40
55771;DHT22;41687;-33.234;-60.334;2023-03-16T01:27:14;27.00;80.70
55771;DHT22;41687;-33.234;-60.334;2023-03-16T01:29:42;27.00;80.10
55771;DHT22;41687;-33.234;-60.334;2023-03-16T01:32:12;27.00;80.20
55771;DHT22;41687;-33.234;-60.334;2023-03-16T01:34:40;27.00;80.10
55771;DHT22;41687;-33.234;-60.334;2023-03-16T01:37:12;27.00;80.50
55771;DHT22;41687;-33.234;-60.334;2023-03-16T01:39:51;26.90;80.30
55771;DHT22;41687;-33.234;-60.334;2023-03-16T01:42:19;26.80;80.10
55771;DHT22;41687;-33.234;-60.334;2023-03-16T01:44:52;26.90;80.10
55771;DHT22;41687;-33.234;-60.334;2023-03-16T01:47:23;26.90;80.60
55771;DHT22;41687;-33.234;-60.334;2023-03-16T01:49:54;26.90;79.80
55771;DHT22;41687;-33.234;-60.334;2023-03-16T01:52:31;26.80;79.80
55771;DHT22;41687;-33.234;-60.334;2023-03-16T01:55:05;26.90;79.60
55771;DHT22;41687;-33.234;-60.334;2023-03-16T01:57:41;26.90;79.60
55771;DHT22;41687;-33.234;-60.334;2023-03-16T02:00:23;26.80;79.30
55771;DHT22;41687;-33.234;-60.334;2023-03-16T02:03:19;26.70;79.80
55771;DHT22;41687;-33.234;-60.334;2023-03-16T02:06:17;26.80;80.70
55771;DHT22;41687;-33.234;-60.334;2023-03-16T02:08:52;26.80;80.00
55771;DHT22;41687;-33.234;-60.334;2023-03-16T02:11:23;26.70;79.90
55771;DHT22;41687;-33.234;-60.334;2023-03-16T02:14:23;26.80;79.80
55771;DHT22;41687;-33.234;-60.334;2023-03-16T02:16:51;26.80;79.50
55771;DHT22;41687;-33.234;-60.334;2023-03-16T02:20:13;26.80;79.70
55771;DHT22;41687;-33.234;-60.334;2023-03-16T02:22:16;26.80;79.70
55771;DHT22;41687;-33.234;-60.334;2023-03-16T02:24:44;26.80;78.70
55771;DHT22;41687;-33.234;-60.334;2023-03-16T02:27:23;26.70;78.80
55771;DHT22;41687;-33.234;-60.334;2023-03-16T02:32:39;26.80;79.10
55771;DHT22;41687;-33.234;-60.334;2023-03-16T02:35:10;26.70;78.50
55771;DHT22;41687;-33.234;-60.334;2023-03-16T02:37:40;26.70;78.70
55771;DHT22;41687;-33.234;-60.334;2023-03-16T02:43:03;26.70;79.50
55771;DHT22;41687;-33.234;-60.334;2023-03-16T02:45:48;26.70;79.30
55771;DHT22;41687;-33.234;-60.334;2023-03-16T02:48:44;26.70;79.60
55771;DHT22;41687;-33.234;-60.334;2023-03-16T02:51:13;26.70;79.40
55771;DHT22;41687;-33.234;-60.334;2023-03-16T02:53:40;26.60;78.90
55771;DHT22;41687;-33.234;-60.334;2023-03-16T02:56:09;26.60;79.00
55771;DHT22;41687;-33.234;-60.334;2023-03-16T02:58:37;26.70;78.70
55771;DHT22;41687;-33.234;-60.334;2023-03-16T03:01:10;26.70;78.80
55771;DHT22;41687;-33.234;-60.334;2023-03-16T03:03:39;26.50;79.10
55771;DHT22;41687;-33.234;-60.334;2023-03-16T03:06:06;26.50;79.20
55771;DHT22;41687;-33.234;-60.334;2023-03-16T03:08:36;26.50;79.20
55771;DHT22;41687;-33.234;-60.334;2023-03-16T03:11:04;26.50;79.20
55771;DHT22;41687;-33.234;-60.334;2023-03-16T03:13:33;26.50;79.20
55771;DHT22;41687;-33.234;-60.334;2023-03-16T03:16:04;26.50;79.30
55771;DHT22;41687;-33.234;-60.334;2023-03-16T03:18:32;26.40;79.70
55771;DHT22;41687;-33.234;-60.334;2023-03-16T03:21:01;26.40;79.60
55771;DHT22;41687;-33.234;-60.334;2023-03-16T03:23:28;26.40;80.20
55771;DHT22;41687;-33.234;-60.334;2023-03-16T03:25:57;26.40;80.00
55771;DHT22;41687;-33.234;-60.334;2023-03-16T03:28:25;26.40;80.20
55771;DHT22;41687;-33.234;-60.334;2023-03-16T03:30:54;26.50;80.30
55771;DHT22;41687;-33.234;-60.334;2023-03-16T03:33:22;26.50;80.60
55771;DHT22;41687;-33.234;-60.334;2023-03-16T03:35:58;26.40;80.50
55771;DHT22;41687;-33.234;-60.334;2023-03-16T03:38:31;26.40;81.40
55771;DHT22;41687;-33.234;-60.334;2023-03-16T03:40:59;26.40;80.70
55771;DHT22;41687;-33.234;-60.334;2023-03-16T03:43:30;26.40;81.10
55771;DHT22;41687;-33.234;-60.334;2023-03-16T03:45:59;26.30;80.60
55771;DHT22;41687;-33.234;-60.334;2023-03-16T03:48:27;26.30;80.90
55771;DHT22;41687;-33.234;-60.334;2023-03-16T03:50:56;26.30;81.00
55771;DHT22;41687;-33.234;-60.334;2023-03-16T03:53:46;26.30;81.30
55771;DHT22;41687;-33.234;-60.334;2023-03-16T03:56:21;26.30;81.40
55771;DHT22;41687;-33.234;-60.334;2023-03-16T03:58:49;26.30;81.70
55771;DHT22;41687;-33.234;-60.334;2023-03-16T04:01:27;26.30;81.80
55771;DHT22;41687;-33.234;-60.334;2023-03-16T04:03:55;26.30;82.00
55771;DHT22;41687;-33.234;-60.334;2023-03-16T04:06:23;26.20;82.30
55771;DHT22;41687;-33.234;-60.334;2023-03-16T04:08:51;26.10;82.70
55771;DHT22;41687;-33.234;-60.334;2023-03-16T04:11:23;26.10;82.60
55771;DHT22;41687;-33.234;-60.334;2023-03-16T04:13:52;26.10;82.70
55771;DHT22;41687;-33.234;-60.334;2023-03-16T04:16:20;26.10;83.10
55771;DHT22;41687;-33.234;-60.334;2023-03-16T04:18:53;26.00;83.30
55771;DHT22;41687;-33.234;-60.334;2023-03-16T04:21:22;26.10;83.50
55771;DHT22;41687;-33.234;-60.334;2023-03-16T04:23:50;26.00;83.30
55771;DHT22;41687;-33.234;-60.334;2023-03-16T04:26:28;26.00;83.60
55771;DHT22;41687;-33.234;-60.334;2023-03-16T04:28:57;26.00;83.50
55771;DHT22;41687;-33.234;-60.334;2023-03-16T04:31:25;26.00;84.10
55771;DHT22;41687;-33.234;-60.334;2023-03-16T04:33:53;26.10;84.20
55771;DHT22;41687;-33.234;-60.334;2023-03-16T04:36:22;26.10;84.00
55771;DHT22;41687;-33.234;-60.334;2023-03-16T04:38:50;26.10;83.80
55771;DHT22;41687;-33.234;-60.334;2023-03-16T04:41:19;26.10;83.40
55771;DHT22;41687;-33.234;-60.334;2023-03-16T04:43:57;26.10;83.40
55771;DHT22;41687;-33.234;-60.334;2023-03-16T04:46:25;26.10;83.10
55771;DHT22;41687;-33.234;-60.334;2023-03-16T04:48:53;26.00;82.40
55771;DHT22;41687;-33.234;-60.334;2023-03-16T04:51:26;25.90;83.00
55771;DHT22;41687;-33.234;-60.334;2023-03-16T04:54:05;25.80;82.40
55771;DHT22;41687;-33.234;-60.334;2023-03-16T04:56:35;25.60;82.40
55771;DHT22;41687;-33.234;-60.334;2023-03-16T04:59:08;25.60;82.70
55771;DHT22;41687;-33.234;-60.334;2023-03-16T05:01:46;25.50;82.70
55771;DHT22;41687;-33.234;-60.334;2023-03-16T05:04:15;25.50;82.80
55771;DHT22;41687;-33.234;-60.334;2023-03-16T05:06:43;25.50;82.80
55771;DHT22;41687;-33.234;-60.334;2023-03-16T05:09:12;25.40;82.80
55771;DHT22;41687;-33.234;-60.334;2023-03-16T05:11:41;25.30;82.90
55771;DHT22;41687;-33.234;-60.334;2023-03-16T05:14:11;25.30;82.80
55771;DHT22;41687;-33.234;-60.334;2023-03-16T05:16:55;25.30;82.70
55771;DHT22;41687;-33.234;-60.334;2023-03-16T05:19:23;25.20;82.60
55771;DHT22;41687;-33.234;-60.334;2023-03-16T05:21:50;25.20;82.50
55771;DHT22;41687;-33.234;-60.334;2023-03-16T05:24:19;25.20;82.30
55771;DHT22;41687;-33.234;-60.334;2023-03-16T05:26:46;25.10;82.30
55771;DHT22;41687;-33.234;-60.334;2023-03-16T05:29:16;25.00;82.00
55771;DHT22;41687;-33.234;-60.334;2023-03-16T05:31:45;25.00;81.40
55771;DHT22;41687;-33.234;-60.334;2023-03-16T05:34:16;24.90;80.30
55771;DHT22;41687;-33.234;-60.334;2023-03-16T05:36:44;24.90;79.90
55771;DHT22;41687;-33.234;-60.334;2023-03-16T05:39:15;24.80;79.10
55771;DHT22;41687;-33.234;-60.334;2023-03-16T05:41:47;24.90;78.70
55771;DHT22;41687;-33.234;-60.334;2023-03-16T05:44:29;24.80;78.70
55771;DHT22;41687;-33.234;-60.334;2023-03-16T05:47:18;24.80;78.60
55771;DHT22;41687;-33.234;-60.334;2023-03-16T05:49:50;24.70;78.70
55771;DHT22;41687;-33.234;-60.334;2023-03-16T05:52:24;24.70;78.30
55771;DHT22;41687;-33.234;-60.334;2023-03-16T05:54:54;24.60;78.50
55771;DHT22;41687;-33.234;-60.334;2023-03-16T05:57:21;24.70;78.40
55771;DHT22;41687;-33.234;-60.334;2023-03-16T05:59:51;24.60;78.30
55771;DHT22;41687;-33.234;-60.334;2023-03-16T06:02:20;24.60;78.50
55771;DHT22;41687;-33.234;-60.334;2023-03-16T06:04:48;24.50;78.60
55771;DHT22;41687;-33.234;-60.334;2023-03-16T06:07:16;24.50;78.60
55771;DHT22;41687;-33.234;-60.334;2023-03-16T06:09:45;24.50;78.60
55771;DHT22;41687;-33.234;-60.334;2023-03-16T06:12:16;24.50;78.70
55771;DHT22;41687;-33.234;-60.334;2023-03-16T06:14:44;24.40;78.90
55771;DHT22;41687;-33.234;-60.334;2023-03-16T06:17:11;24.30;79.20
55771;DHT22;41687;-33.234;-60.334;2023-03-16T06:19:41;24.30;79.50
55771;DHT22;41687;-33.234;-60.334;2023-03-16T06:22:08;24.20;79.60
55771;DHT22;41687;-33.234;-60.334;2023-03-16T06:24:38;24.30;79.40
55771;DHT22;41687;-33.234;-60.334;2023-03-16T06:27:06;24.30;80.10
55771;DHT22;41687;-33.234;-60.334;2023-03-16T06:29:46;24.40;79.60
55771;DHT22;41687;-33.234;-60.334;2023-03-16T06:32:15;24.40;79.50
55771;DHT22;41687;-33.234;-60.334;2023-03-16T06:34:43;24.30;80.20
55771;DHT22;41687;-33.234;-60.334;2023-03-16T06:37:10;24.30;80.10
55771;DHT22;41687;-33.234;-60.334;2023-03-16T06:39:39;24.30;80.10
55771;DHT22;41687;-33.234;-60.334;2023-03-16T06:42:07;24.30;80.10
55771;DHT22;41687;-33.234;-60.334;2023-03-16T06:44:35;24.30;80.20
55771;DHT22;41687;-33.234;-60.334;2023-03-16T06:47:07;24.30;80.20
55771;DHT22;41687;-33.234;-60.334;2023-03-16T06:49:36;24.40;80.20
55771;DHT22;41687;-33.234;-60.334;2023-03-16T06:52:13;24.40;80.30
55771;DHT22;41687;-33.234;-60.334;2023-03-16T06:54:41;24.40;80.40
55771;DHT22;41687;-33.234;-60.334;2023-03-16T06:57:09;24.50;80.20
55771;DHT22;41687;-33.234;-60.334;2023-03-16T06:59:37;24.40;80.00
55771;DHT22;41687;-33.234;-60.334;2023-03-16T07:02:04;24.40;80.10
55771;DHT22;41687;-33.234;-60.334;2023-03-16T07:04:33;24.40;80.10
55771;DHT22;41687;-33.234;-60.334;2023-03-16T07:07:00;24.40;80.40
55771;DHT22;41687;-33.234;-60.334;2023-03-16T07:09:28;24.30;80.60
55771;DHT22;41687;-33.234;-60.334;2023-03-16T07:11:57;24.30;81.00
55771;DHT22;41687;-33.234;-60.334;2023-03-16T07:14:25;24.30;81.00
55771;DHT22;41687;-33.234;-60.334;2023-03-16T07:16:54;24.30;80.90
55771;DHT22;41687;-33.234;-60.334;2023-03-16T07:19:24;24.30;81.20
55771;DHT22;41687;-33.234;-60.334;2023-03-16T07:21:53;24.30;81.10
55771;DHT22;41687;-33.234;-60.334;2023-03-16T07:24:24;24.30;81.60
55771;DHT22;41687;-33.234;-60.334;2023-03-16T07:26:51;24.30;81.20
55771;DHT22;41687;-33.234;-60.334;2023-03-16T07:29:29;24.20;81.30
55771;DHT22;41687;-33.234;-60.334;2023-03-16T07:31:57;24.10;81.80
55771;DHT22;41687;-33.234;-60.334;2023-03-16T07:34:32;24.10;81.80
55771;DHT22;41687;-33.234;-60.334;2023-03-16T07:37:01;24.10;81.80
55771;DHT22;41687;-33.234;-60.334;2023-03-16T07:39:31;24.00;82.30
55771;DHT22;41687;-33.234;-60.334;2023-03-16T07:42:06;23.90;82.60
55771;DHT22;41687;-33.234;-60.334;2023-03-16T07:45:00;23.70;82.90
55771;DHT22;41687;-33.234;-60.334;2023-03-16T07:47:28;23.70;83.40
55771;DHT22;41687;-33.234;-60.334;2023-03-16T07:50:04;23.50;84.10
55771;DHT22;41687;-33.234;-60.334;2023-03-16T07:52:33;23.50;84.30
55771;DHT22;41687;-33.234;-60.334;2023-03-16T07:55:01;23.50;84.20
55771;DHT22;41687;-33.234;-60.334;2023-03-16T07:57:30;23.50;84.00
55771;DHT22;41687;-33.234;-60.334;2023-03-16T07:59:57;23.50;84.10
55771;DHT22;41687;-33.234;-60.334;2023-03-16T08:02:26;23.50;84.20
55771;DHT22;41687;-33.234;-60.334;2023-03-16T08:04:54;23.50;84.10
55771;DHT22;41687;-33.234;-60.334;2023-03-16T08:07:23;23.50;84.10
55771;DHT22;41687;-33.234;-60.334;2023-03-16T08:10:02;23.50;84.10
55771;DHT22;41687;-33.234;-60.334;2023-03-16T08:12:40;23.50;84.40
55771;DHT22;41687;-33.234;-60.334;2023-03-16T08:15:09;23.50;84.90
55771;DHT22;41687;-33.234;-60.334;2023-03-16T08:17:38;23.50;85.00
55771;DHT22;41687;-33.234;-60.334;2023-03-16T08:20:11;23.50;85.10
55771;DHT22;41687;-33.234;-60.334;2023-03-16T08:22:41;23.40;85.20
55771;DHT22;41687;-33.234;-60.334;2023-03-16T08:25:14;23.40;85.20
55771;DHT22;41687;-33.234;-60.334;2023-03-16T08:27:52;23.30;84.90
55771;DHT22;41687;-33.234;-60.334;2023-03-16T08:30:20;23.30;85.00
55771;DHT22;41687;-33.234;-60.334;2023-03-16T08:32:58;23.30;85.10
55771;DHT22;41687;-33.234;-60.334;2023-03-16T08:35:29;23.30;85.00
55771;DHT22;41687;-33.234;-60.334;2023-03-16T08:37:56;23.20;85.00
55771;DHT22;41687;-33.234;-60.334;2023-03-16T08:40:25;23.30;85.30
55771;DHT22;41687;-33.234;-60.334;2023-03-16T08:42:57;23.40;85.30
55771;DHT22;41687;-33.234;-60.334;2023-03-16T08:45:25;23.30;85.90
55771;DHT22;41687;-33.234;-60.334;2023-03-16T08:47:52;23.30;86.60
55771;DHT22;41687;-33.234;-60.334;2023-03-16T08:50:20;23.30;86.80
55771;DHT22;41687;-33.234;-60.334;2023-03-16T08:52:48;23.30;86.70
55771;DHT22;41687;-33.234;-60.334;2023-03-16T08:55:17;23.30;86.50
55771;DHT22;41687;-33.234;-60.334;2023-03-16T08:57:44;23.30;86.80
55771;DHT22;41687;-33.234;-60.334;2023-03-16T09:00:14;23.30;86.70
55771;DHT22;41687;-33.234;-60.334;2023-03-16T09:02:43;23.30;86.70
55771;DHT22;41687;-33.234;-60.334;2023-03-16T09:05:13;23.40;86.90
55771;DHT22;41687;-33.234;-60.334;2023-03-16T09:07:41;23.40;86.60
55771;DHT22;41687;-33.234;-60.334;2023-03-16T09:10:10;23.40;86.80
55771;DHT22;41687;-33.234;-60.334;2023-03-16T09:12:43;23.40;86.70
55771;DHT22;41687;-33.234;-60.334;2023-03-16T09:15:12;23.40;86.80
55771;DHT22;41687;-33.234;-60.334;2023-03-16T09:17:39;23.40;86.80
55771;DHT22;41687;-33.234;-60.334;2023-03-16T09:20:13;23.40;86.50
55771;DHT22;41687;-33.234;-60.334;2023-03-16T09:22:41;23.40;86.20
55771;DHT22;41687;-33.234;-60.334;2023-03-16T09:25:09;23.30;86.30
55771;DHT22;41687;-33.234;-60.334;2023-03-16T09:27:37;23.30;86.70
55771;DHT22;41687;-33.234;-60.334;2023-03-16T09:30:06;23.20;87.00
55771;DHT22;41687;-33.234;-60.334;2023-03-16T09:32:34;23.20;86.60
55771;DHT22;41687;-33.234;-60.334;2023-03-16T09:35:04;23.20;86.50
55771;DHT22;41687;-33.234;-60.334;2023-03-16T09:37:32;23.20;86.60
55771;DHT22;41687;-33.234;-60.334;2023-03-16T09:40:00;23.20;86.30
55771;DHT22;41687;-33.234;-60.334;2023-03-16T09:42:44;23.10;86.70
55771;DHT22;41687;-33.234;-60.334;2023-03-16T09:45:43;23.00;87.70
55771;DHT22;41687;-33.234;-60.334;2023-03-16T09:48:15;22.90;88.10
55771;DHT22;41687;-33.234;-60.334;2023-03-16T09:50:44;22.90;87.50
55771;DHT22;41687;-33.234;-60.334;2023-03-16T09:53:48;23.00;87.50
55771;DHT22;41687;-33.234;-60.334;2023-03-16T09:56:26;23.00;88.70
55771;DHT22;41687;-33.234;-60.334;2023-03-16T09:58:57;22.90;87.90
55771;DHT22;41687;-33.234;-60.334;2023-03-16T10:01:39;22.90;87.80
55771;DHT22;41687;-33.234;-60.334;2023-03-16T10:04:44;22.90;88.60
55771;DHT22;41687;-33.234;-60.334;2023-03-16T10:12:51;22.90;89.00
55771;DHT22;41687;-33.234;-60.334;2023-03-16T10:15:24;22.90;88.80
55771;DHT22;41687;-33.234;-60.334;2023-03-16T10:18:15;22.90;89.00
55771;DHT22;41687;-33.234;-60.334;2023-03-16T10:20:45;22.90;89.20
55771;DHT22;41687;-33.234;-60.334;2023-03-16T10:23:21;22.90;88.80
55771;DHT22;41687;-33.234;-60.334;2023-03-16T10:25:53;22.90;88.80
55771;DHT22;41687;-33.234;-60.334;2023-03-16T10:28:25;23.00;89.00
55771;DHT22;41687;-33.234;-60.334;2023-03-16T10:30:57;23.00;88.90
55771;DHT22;41687;-33.234;-60.334;2023-03-16T10:33:31;23.00;89.30
55771;DHT22;41687;-33.234;-60.334;2023-03-16T10:36:27;23.10;89.40
55771;DHT22;41687;-33.234;-60.334;2023-03-16T10:41:38;23.20;89.30
55771;DHT22;41687;-33.234;-60.334;2023-03-16T10:44:22;23.20;89.30
55771;DHT22;41687;-33.234;-60.334;2023-03-16T10:47:03;23.20;89.90
55771;DHT22;41687;-33.234;-60.334;2023-03-16T10:49:41;23.30;89.50
55771;DHT22;41687;-33.234;-60.334;2023-03-16T10:52:41;23.40;89.40
55771;DHT22;41687;-33.234;-60.334;2023-03-16T10:55:18;23.50;89.10
55771;DHT22;41687;-33.234;-60.334;2023-03-16T10:57:50;24.00;88.40
55771;DHT22;41687;-33.234;-60.334;2023-03-16T11:00:22;24.60;86.60
55771;DHT22;41687;-33.234;-60.334;2023-03-16T11:02:53;25.40;83.80
55771;DHT22;41687;-33.234;-60.334;2023-03-16T11:05:31;26.20;81.40
55771;DHT22;41687;-33.234;-60.334;2023-03-16T11:10:41;27.40;78.00
55771;DHT22;41687;-33.234;-60.334;2023-03-16T11:13:16;27.80;77.20
55771;DHT22;41687;-33.234;-60.334;2023-03-16T11:19:16;28.30;76.10
55771;DHT22;41687;-33.234;-60.334;2023-03-16T11:27:02;28.50;75.50
55771;DHT22;41687;-33.234;-60.334;2023-03-16T11:32:13;28.50;75.70
55771;DHT22;41687;-33.234;-60.334;2023-03-16T11:34:43;28.70;75.20
55771;DHT22;41687;-33.234;-60.334;2023-03-16T11:37:45;28.70;75.40
55771;DHT22;41687;-33.234;-60.334;2023-03-16T11:51:08;29.40;74.80
55771;DHT22;41687;-33.234;-60.334;2023-03-16T11:53:59;29.50;74.60
55771;DHT22;41687;-33.234;-60.334;2023-03-16T11:56:49;29.50;74.20
55771;DHT22;41687;-33.234;-60.334;2023-03-16T12:05:21;29.90;72.80
55771;DHT22;41687;-33.234;-60.334;2023-03-16T12:16:00;29.60;75.00
55771;DHT22;41687;-33.234;-60.334;2023-03-16T12:21:39;30.10;75.20
55771;DHT22;41687;-33.234;-60.334;2023-03-16T12:24:22;30.50;74.20
55771;DHT22;41687;-33.234;-60.334;2023-03-16T12:26:52;30.90;73.60
55771;DHT22;41687;-33.234;-60.334;2023-03-16T12:32:41;31.20;71.60
55771;DHT22;41687;-33.234;-60.334;2023-03-16T12:38:19;31.20;71.40
55771;DHT22;41687;-33.234;-60.334;2023-03-16T12:46:12;31.40;72.10
55771;DHT22;41687;-33.234;-60.334;2023-03-16T12:48:53;31.50;71.00
55771;DHT22;41687;-33.234;-60.334;2023-03-16T12:51:38;31.60;70.00
55771;DHT22;41687;-33.234;-60.334;2023-03-16T12:54:24;31.70;70.30
55771;DHT22;41687;-33.234;-60.334;2023-03-16T12:57:03;32.30;68.70
55771;DHT22;41687;-33.234;-60.334;2023-03-16T12:59:44;32.50;69.90
55771;DHT22;41687;-33.234;-60.334;2023-03-16T13:02:41;32.60;67.60
55771;DHT22;41687;-33.234;-60.334;2023-03-16T13:07:48;32.40;68.50
55771;DHT22;41687;-33.234;-60.334;2023-03-16T13:10:18;32.40;66.30
55771;DHT22;41687;-33.234;-60.334;2023-03-16T13:12:48;31.90;68.50
55771;DHT22;41687;-33.234;-60.334;2023-03-16T13:18:02;31.30;69.30
55771;DHT22;41687;-33.234;-60.334;2023-03-16T13:20:32;31.70;68.80
55771;DHT22;41687;-33.234;-60.334;2023-03-16T13:28:51;31.90;67.20
55771;DHT22;41687;-33.234;-60.334;2023-03-16T13:31:34;32.40;67.70
55771;DHT22;41687;-33.234;-60.334;2023-03-16T13:34:06;32.50;68.20
55771;DHT22;41687;-33.234;-60.334;2023-03-16T13:36:38;32.70;66.80
55771;DHT22;41687;-33.234;-60.334;2023-03-16T13:39:19;33.00;67.50
55771;DHT22;41687;-33.234;-60.334;2023-03-16T13:42:18;33.10;65.10
55771;DHT22;41687;-33.234;-60.334;2023-03-16T13:44:46;33.10;64.30
55771;DHT22;41687;-33.234;-60.334;2023-03-16T13:47:15;33.20;66.30
55771;DHT22;41687;-33.234;-60.334;2023-03-16T13:49:48;33.30;65.60
55771;DHT22;41687;-33.234;-60.334;2023-03-16T13:52:33;33.50;65.10
55771;DHT22;41687;-33.234;-60.334;2023-03-16T13:55:13;33.80;63.90
55771;DHT22;41687;-33.234;-60.334;2023-03-16T13:57:43;33.70;64.60
55771;DHT22;41687;-33.234;-60.334;2023-03-16T14:00:23;33.80;64.60
55771;DHT22;41687;-33.234;-60.334;2023-03-16T14:02:54;33.80;63.60
55771;DHT22;41687;-33.234;-60.334;2023-03-16T14:05:25;33.90;64.70
55771;DHT22;41687;-33.234;-60.334;2023-03-16T14:07:55;33.90;64.30
55771;DHT22;41687;-33.234;-60.334;2023-03-16T14:10:25;33.80;63.80
55771;DHT22;41687;-33.234;-60.334;2023-03-16T14:12:57;33.80;64.00
55771;DHT22;41687;-33.234;-60.334;2023-03-16T14:15:26;33.40;64.00
55771;DHT22;41687;-33.234;-60.334;2023-03-16T14:18:00;33.10;64.80
55771;DHT22;41687;-33.234;-60.334;2023-03-16T14:20:35;32.80;65.30
55771;DHT22;41687;-33.234;-60.334;2023-03-16T14:23:03;32.10;65.90
55771;DHT22;41687;-33.234;-60.334;2023-03-16T14:25:31;31.50;67.40
55771;DHT22;41687;-33.234;-60.334;2023-03-16T14:28:05;31.80;67.60
55771;DHT22;41687;-33.234;-60.334;2023-03-16T14:30:33;32.00;66.70
55771;DHT22;41687;-33.234;-60.334;2023-03-16T14:33:18;31.90;67.20
55771;DHT22;41687;-33.234;-60.334;2023-03-16T14:35:55;31.50;65.50
55771;DHT22;41687;-33.234;-60.334;2023-03-16T14:38:32;31.00;66.50
55771;DHT22;41687;-33.234;-60.334;2023-03-16T14:41:16;30.70;67.30
55771;DHT22;41687;-33.234;-60.334;2023-03-16T14:43:48;30.40;68.00
55771;DHT22;41687;-33.234;-60.334;2023-03-16T14:46:27;30.20;68.10
55771;DHT22;41687;-33.234;-60.334;2023-03-16T14:49:36;30.00;68.00
55771;DHT22;41687;-33.234;-60.334;2023-03-16T14:52:26;29.80;68.00
55771;DHT22;41687;-33.234;-60.334;2023-03-16T14:54:58;29.50;68.50
55771;DHT22;41687;-33.234;-60.334;2023-03-16T14:57:26;29.40;69.60
55771;DHT22;41687;-33.234;-60.334;2023-03-16T14:59:54;29.30;70.10
55771;DHT22;41687;-33.234;-60.334;2023-03-16T15:02:29;29.30;70.40
55771;DHT22;41687;-33.234;-60.334;2023-03-16T15:04:59;29.20;70.50
55771;DHT22;41687;-33.234;-60.334;2023-03-16T15:07:33;29.50;70.50
55771;DHT22;41687;-33.234;-60.334;2023-03-16T15:12:49;29.70;69.30
55771;DHT22;41687;-33.234;-60.334;2023-03-16T15:15:22;29.50;70.00
55771;DHT22;41687;-33.234;-60.334;2023-03-16T15:17:53;29.30;71.00
55771;DHT22;41687;-33.234;-60.334;2023-03-16T15:20:27;29.20;71.40
55771;DHT22;41687;-33.234;-60.334;2023-03-16T15:22:57;29.10;71.60
55771;DHT22;41687;-33.234;-60.334;2023-03-16T15:25:32;29.00;72.20
55771;DHT22;41687;-33.234;-60.334;2023-03-16T15:30:39;29.30;70.80
55771;DHT22;41687;-33.234;-60.334;2023-03-16T15:33:08;29.20;70.80
55771;DHT22;41687;-33.234;-60.334;2023-03-16T15:35:37;29.10;70.00
55771;DHT22;41687;-33.234;-60.334;2023-03-16T15:38:17;29.10;69.20
55771;DHT22;41687;-33.234;-60.334;2023-03-16T15:40:46;29.20;69.30
55771;DHT22;41687;-33.234;-60.334;2023-03-16T15:43:16;29.50;69.60
55771;DHT22;41687;-33.234;-60.334;2023-03-16T15:45:45;29.90;68.80
55771;DHT22;41687;-33.234;-60.334;2023-03-16T15:48:13;30.20;68.30
55771;DHT22;41687;-33.234;-60.334;2023-03-16T15:50:49;30.50;67.30
55771;DHT22;41687;-33.234;-60.334;2023-03-16T15:53:26;30.70;66.20
55771;DHT22;41687;-33.234;-60.334;2023-03-16T15:55:59;31.00;65.50
55771;DHT22;41687;-33.234;-60.334;2023-03-16T15:58:30;31.10;65.30
55771;DHT22;41687;-33.234;-60.334;2023-03-16T16:00:59;31.30;65.60
55771;DHT22;41687;-33.234;-60.334;2023-03-16T16:03:28;31.50;65.80
55771;DHT22;41687;-33.234;-60.334;2023-03-16T16:05:56;31.70;64.80
55771;DHT22;41687;-33.234;-60.334;2023-03-16T16:08:24;31.60;64.60
55771;DHT22;41687;-33.234;-60.334;2023-03-16T16:10:52;31.70;64.60
55771;DHT22;41687;-33.234;-60.334;2023-03-16T16:13:25;31.60;65.10
55771;DHT22;41687;-33.234;-60.334;2023-03-16T16:15:56;31.60;65.20
55771;DHT22;41687;-33.234;-60.334;2023-03-16T16:20:58;31.70;64.60
55771;DHT22;41687;-33.234;-60.334;2023-03-16T16:23:27;31.80;64.70
55771;DHT22;41687;-33.234;-60.334;2023-03-16T16:26:42;31.80;64.60
55771;DHT22;41687;-33.234;-60.334;2023-03-16T16:28:44;31.70;65.30
55771;DHT22;41687;-33.234;-60.334;2023-03-16T16:31:21;31.80;64.60
55771;DHT22;41687;-33.234;-60.334;2023-03-16T16:33:50;31.90;64.00
55771;DHT22;41687;-33.234;-60.334;2023-03-16T16:36:19;31.80;64.40
55771;DHT22;41687;-33.234;-60.334;2023-03-16T16:38:48;31.80;64.30
55771;DHT22;41687;-33.234;-60.334;2023-03-16T16:41:29;31.90;62.90
55771;DHT22;41687;-33.234;-60.334;2023-03-16T16:43:59;31.90;62.60
55771;DHT22;41687;-33.234;-60.334;2023-03-16T16:46:36;31.90;63.60